National Weather Service United States Department of Commerce

Dangerous Fire Weather Threat Continues in Southern California; Winter Weather from the Mid-Mississippi Valley to the Mid-Atlantic

Critical fire weather conditions continue for portions of Southern California. Conditions should improve somewhat by Thursday, and at least an elevated fire weather threat is expected to continue. A storm system is expected to bring heavy rain with a river/flash flooding threat to the Southeast, and accumulating snow and ice from the Mid-Mississippi Valley to the interior Mid-Atlantic. Read More >

 
       

                   ZNY Airspace Headline

  Aviation Weather Impacts

             PreDuty ZNY Weather Briefing Video

                 

N90 Terminal Headline

 

 

NY Terminal Aviation Weather Discussion (AFD) - Prepared: 
 

5 Day General Aviation Outlook:

 

NY Metro Terminal Aviation Weather Summary: (Explanation of Color Coding)
NOTE: All Wind Directions are TRUE (add 13 degrees for magnetic directions). Tail and Crosswind Calculations do account for the magnetic deviation of runways.

 

KJFK Terminal Weather: (Wind Directions Are True, Except Where Noted, ADD 13 degrees for Magnetic)  

Latest Wind Data for KJFK
 Click for GRAPH of Ribbon Display   Click for TEXT of Ribbon Display and ASOS Winds

Latest KJFK METAR
METAR KJFK 140451Z 30013KT 10SM BKN047 OVC220 07/M01 A3014 RMK AO2
     SLP206 T00671006 401440061

Latest KJFK TAFDecoded KJFK TAF (Click Image to Enlarge)
  KJFK 140221Z 1402/1506 31015G23KT P6SM BKN100 OVC250
     FM140900 31015KT P6SM SKC
     FM141300 32015G23KT P6SM SKC
     FM142200 33011KT P6SM SCT250
     FM150400 35009KT P6SM SKC



 
JFK Hourly Forecast Temperature (Degrees C) - Time is Local !

KLGA Terminal Weather: (Wind Directions Are True, Except Where Noted, ADD 13 degrees for Magnetic)  

Latest Wind Data for KLGA
 Click for GRAPH of Ribbon Display   Click for TEXT of Ribbon Display and ASOS Winds

Latest KLGA METAR
METAR KLGA 140451Z 32015G20KT 10SM SCT037 OVC050 07/M01 A3013 RMK AO2
     SLP201 T00671006 401170067

Latest KLGA TAFDecoded KLGA TAF (Click Image to Enlarge)
  KLGA 140211Z 1402/1506 31015G23KT P6SM FEW025 OVC100
     FM140900 31015KT P6SM SKC
     FM141300 32014G22KT P6SM SKC
     FM142200 33011KT P6SM SCT250
     FM150300 35010KT P6SM SKC





 

 

LGA Hourly Forecast Temperature (Degrees C) - Time is Local !

KEWR Terminal Weather: (Wind Directions Are True, Except Where Noted, ADD 13 degrees for Magnetic)  

Latest Wind Data for KEWR
 Click for GRAPH of Ribbon Display   Click for TEXT of Ribbon Display and ASOS Winds

Latest KEWR METAR
METAR KEWR 140451Z 29010KT 10SM OVC036 06/M01 A3014 RMK AO2 SLP205
     T00611011 401000061

Latest KEWR TAFDecoded KEWR TAF (Click Image to Enlarge)
  KEWR 140220Z 1402/1506 29010G16KT P6SM FEW035 OVC100
     FM140600 30011KT P6SM SKC
     FM141300 31013G21KT P6SM SKC
     FM142200 32010KT P6SM SCT250
     FM150300 35008KT P6SM SKC


EWR Hourly Forecast Temperature (Degrees C) - Time is Local ! 
 

Afternoon EWR Haze Potential Forecast: 

KTEB Terminal Weather: (Wind Directions Are True, Except Where Noted, ADD 13 degrees for Magnetic)
Latest KTEB METAR
METAR KTEB 140451Z 36010G18KT 10SM BKN035 OVC047 06/M01 A3013 RMK AO2
     SLP202 T00561011 400940056

Latest KTEB TAFDecoded KTEB TAF (Click Image to Enlarge)
  KTEB 140424Z 1404/1506 30008KT P6SM BKN050
     FM140800 30009KT P6SM SKC
     FM141300 32011G18KT P6SM SKC
     FM142200 33007KT P6SM SCT250
     FM150200 VRB04KT P6SM SKC






 

 

KHPN Terminal Weather: (Wind Directions Are True, Except Where Noted, ADD 13 degrees for Magnetic)
Latest KHPN METAR
METAR KHPN 140456Z 31015G22KT 10SM FEW035 BKN050 04/M02 A3010 RMK AO2
     SLP197 T00441022 401000044

Latest KHPN TAFDecoded KHPN TAF (Click Image to Enlarge)
  KHPN 140229Z 1402/1424 30013G21KT P6SM BKN100
     FM140800 30011KT P6SM SKC
     FM141300 31013G20KT P6SM SKC
     FM142200 31009KT P6SM SCT250 AMD NOT SKED






 
KISP Terminal Weather: (Wind Directions Are True, Except Where Noted, ADD 13 degrees for Magnetic)
Latest KISP METAR
METAR KISP 140456Z 30012KT 10SM FEW040 FEW100 SCT160 OVC220 06/M02 A3010
     RMK AO2 SLP192 LAST T00561017 401560056

Latest KISP TAFDecoded KISP TAF (Click Image to Enlarge)
  KISP 140226Z 1402/1424 30010KT P6SM SCT030 BKN100
     FM140400 30012G20KT P6SM BKN250
     FM140800 31010KT P6SM SKC
     FM141300 31012G20KT P6SM SKC
     FM142200 32007KT P6SM SCT250






 

ZNY WINTER Season Information:

(ZNY BRIEFING) (Click for PDF Filein Pop-Up Window)

N90 Airspace Impacts

******  PIREPS  ******


Surface Weather Map

Surface Weather Map

N90 Icing Forecast

N90 Icing Forecast

Compression Outlook

Compression Outlook

N90 DAY 1 SWAP Outlook (Issued if Expected outside SWAP Season)

N90 Day 1 SWAP Outlook

 

Compression Forecast (Experimental) ... (Issued if Expected)

Compression Forecast

N90 DAY 2 SWAP Outlook (Issued if Expected outside SWAP Season

N90 Day 2 SWAP Outlook

TCM Convective Forecast (TCF) (Mar-Oct)

FAA Training (Use Internet Explorer Only !)


Vertical Wind Profile

RED LINE is the "Highest" Freezing Level - Lower Freezing Levels Can Exist.